sensor_id;sensor_type;location;lat;lon;timestamp;pressure;altitude;pressure_sealevel;temperature;humidity
82033;BME280;71595;52.180;4.512;2023-08-21T00:01:51;102449.63;;;17.51;78.44
82033;BME280;71595;52.180;4.512;2023-08-21T00:04:17;102444.19;;;17.55;78.01
82033;BME280;71595;52.180;4.512;2023-08-21T00:06:43;102446.28;;;17.46;77.94
82033;BME280;71595;52.180;4.512;2023-08-21T00:09:08;102455.00;;;17.44;77.95
82033;BME280;71595;52.180;4.512;2023-08-21T00:11:34;102447.78;;;17.43;77.96
82033;BME280;71595;52.180;4.512;2023-08-21T00:13:59;102445.91;;;17.35;78.14
82033;BME280;71595;52.180;4.512;2023-08-21T00:16:25;102450.69;;;17.34;78.20
82033;BME280;71595;52.180;4.512;2023-08-21T00:18:52;102446.72;;;17.35;78.21
82033;BME280;71595;52.180;4.512;2023-08-21T00:21:18;102437.19;;;17.36;77.96
82033;BME280;71595;52.180;4.512;2023-08-21T00:23:44;102436.25;;;17.32;78.33
82033;BME280;71595;52.180;4.512;2023-08-21T00:26:09;102436.03;;;17.25;78.37
82033;BME280;71595;52.180;4.512;2023-08-21T00:28:34;102440.94;;;17.28;78.14
82033;BME280;71595;52.180;4.512;2023-08-21T00:31:01;102442.41;;;17.25;78.04
82033;BME280;71595;52.180;4.512;2023-08-21T00:33:29;102440.78;;;17.24;77.76
82033;BME280;71595;52.180;4.512;2023-08-21T00:35:55;102441.38;;;17.18;78.26
82033;BME280;71595;52.180;4.512;2023-08-21T00:38:20;102443.47;;;17.21;77.93
82033;BME280;71595;52.180;4.512;2023-08-21T00:40:46;102444.16;;;17.18;77.80
82033;BME280;71595;52.180;4.512;2023-08-21T00:43:11;102430.88;;;17.15;77.61
82033;BME280;71595;52.180;4.512;2023-08-21T00:45:38;102435.78;;;17.18;77.68
82033;BME280;71595;52.180;4.512;2023-08-21T00:48:06;102435.78;;;17.18;77.60
82033;BME280;71595;52.180;4.512;2023-08-21T00:50:32;102426.00;;;17.12;77.80
82033;BME280;71595;52.180;4.512;2023-08-21T00:52:57;102426.81;;;17.12;77.61
82033;BME280;71595;52.180;4.512;2023-08-21T00:55:23;102431.59;;;17.12;77.57
82033;BME280;71595;52.180;4.512;2023-08-21T00:57:49;102429.59;;;17.12;77.76
82033;BME280;71595;52.180;4.512;2023-08-21T01:00:14;102429.25;;;17.14;78.09
82033;BME280;71595;52.180;4.512;2023-08-21T01:02:40;102427.63;;;17.13;77.82
82033;BME280;71595;52.180;4.512;2023-08-21T01:05:05;102431.31;;;17.04;78.16
82033;BME280;71595;52.180;4.512;2023-08-21T01:07:38;102444.13;;;17.05;78.32
82033;BME280;71595;52.180;4.512;2023-08-21T01:10:16;102434.84;;;17.14;78.05
82033;BME280;71595;52.180;4.512;2023-08-21T01:12:48;102432.53;;;17.16;77.79
82033;BME280;71595;52.180;4.512;2023-08-21T01:15:15;102445.19;;;17.13;77.80
82033;BME280;71595;52.180;4.512;2023-08-21T01:17:42;102448.22;;;17.08;78.29
82033;BME280;71595;52.180;4.512;2023-08-21T01:20:08;102442.28;;;17.10;78.08
82033;BME280;71595;52.180;4.512;2023-08-21T01:22:37;102441.91;;;16.99;78.19
82033;BME280;71595;52.180;4.512;2023-08-21T01:25:07;102446.66;;;16.98;78.20
82033;BME280;71595;52.180;4.512;2023-08-21T01:27:34;102438.97;;;16.95;78.45
82033;BME280;71595;52.180;4.512;2023-08-21T01:30:02;102442.59;;;16.96;78.26
82033;BME280;71595;52.180;4.512;2023-08-21T01:32:37;102455.13;;;16.89;78.47
82033;BME280;71595;52.180;4.512;2023-08-21T01:35:05;102457.34;;;16.96;78.28
82033;BME280;71595;52.180;4.512;2023-08-21T01:37:32;102445.94;;;16.89;78.64
82033;BME280;71595;52.180;4.512;2023-08-21T01:39:58;102440.09;;;16.82;78.73
82033;BME280;71595;52.180;4.512;2023-08-21T01:42:24;102445.66;;;16.82;78.45
82033;BME280;71595;52.180;4.512;2023-08-21T01:44:49;102441.22;;;16.81;78.50
82033;BME280;71595;52.180;4.512;2023-08-21T01:47:14;102451.25;;;16.82;78.91
82033;BME280;71595;52.180;4.512;2023-08-21T01:49:40;102443.34;;;16.84;79.04
82033;BME280;71595;52.180;4.512;2023-08-21T01:52:05;102445.94;;;16.89;79.00
82033;BME280;71595;52.180;4.512;2023-08-21T01:54:31;102439.88;;;16.87;79.24
82033;BME280;71595;52.180;4.512;2023-08-21T01:56:56;102437.28;;;16.82;79.36
82033;BME280;71595;52.180;4.512;2023-08-21T01:59:23;102445.94;;;16.89;78.68
82033;BME280;71595;52.180;4.512;2023-08-21T02:01:49;102444.97;;;16.85;78.62
82033;BME280;71595;52.180;4.512;2023-08-21T02:04:14;102443.09;;;16.77;78.96
82033;BME280;71595;52.180;4.512;2023-08-21T02:06:40;102450.16;;;16.74;78.95
82033;BME280;71595;52.180;4.512;2023-08-21T02:09:05;102447.72;;;16.73;79.31
82033;BME280;71595;52.180;4.512;2023-08-21T02:11:30;102450.28;;;16.78;79.31
82033;BME280;71595;52.180;4.512;2023-08-21T02:13:56;102453.78;;;16.75;79.55
82033;BME280;71595;52.180;4.512;2023-08-21T02:16:21;102445.97;;;16.68;79.36
82033;BME280;71595;52.180;4.512;2023-08-21T02:18:47;102455.34;;;16.63;79.63
82033;BME280;71595;52.180;4.512;2023-08-21T02:21:12;102457.13;;;16.68;79.63
82033;BME280;71595;52.180;4.512;2023-08-21T02:23:38;102441.34;;;16.72;79.10
82033;BME280;71595;52.180;4.512;2023-08-21T02:26:03;102448.41;;;16.69;79.45
82033;BME280;71595;52.180;4.512;2023-08-21T02:28:29;102443.16;;;16.68;79.22
82033;BME280;71595;52.180;4.512;2023-08-21T02:30:54;102444.94;;;16.73;78.67
82033;BME280;71595;52.180;4.512;2023-08-21T02:33:19;102441.69;;;16.70;78.83
82033;BME280;71595;52.180;4.512;2023-08-21T02:35:45;102440.25;;;16.64;79.10
82033;BME280;71595;52.180;4.512;2023-08-21T02:38:10;102448.28;;;16.66;79.13
82033;BME280;71595;52.180;4.512;2023-08-21T02:40:35;102450.94;;;16.62;79.34
82033;BME280;71595;52.180;4.512;2023-08-21T02:43:01;102453.38;;;16.64;79.11
82033;BME280;71595;52.180;4.512;2023-08-21T02:45:26;102448.13;;;16.62;79.02
82033;BME280;71595;52.180;4.512;2023-08-21T02:47:52;102453.03;;;16.65;78.46
82033;BME280;71595;52.180;4.512;2023-08-21T02:50:17;102448.97;;;16.63;78.88
82033;BME280;71595;52.180;4.512;2023-08-21T02:52:42;102442.22;;;16.64;78.81
82033;BME280;71595;52.180;4.512;2023-08-21T02:55:08;102444.09;;;16.60;79.05
82033;BME280;71595;52.180;4.512;2023-08-21T02:57:34;102438.84;;;16.58;79.04
82033;BME280;71595;52.180;4.512;2023-08-21T02:59:59;102441.28;;;16.60;78.94
82033;BME280;71595;52.180;4.512;2023-08-21T03:02:25;102425.72;;;16.59;78.99
82033;BME280;71595;52.180;4.512;2023-08-21T03:04:50;102431.16;;;16.55;79.12
82033;BME280;71595;52.180;4.512;2023-08-21T03:07:16;102423.13;;;16.53;79.24
82033;BME280;71595;52.180;4.512;2023-08-21T03:09:45;102428.03;;;16.57;79.30
82033;BME280;71595;52.180;4.512;2023-08-21T03:12:11;102426.50;;;16.59;79.15
82033;BME280;71595;52.180;4.512;2023-08-21T03:14:36;102431.16;;;16.55;79.40
82033;BME280;71595;52.180;4.512;2023-08-21T03:17:01;102430.47;;;16.58;79.10
82033;BME280;71595;52.180;4.512;2023-08-21T03:19:27;102432.31;;;16.54;78.94
82033;BME280;71595;52.180;4.512;2023-08-21T03:21:52;102429.53;;;16.54;78.64
82033;BME280;71595;52.180;4.512;2023-08-21T03:24:18;102423.94;;;16.54;78.78
82033;BME280;71595;52.180;4.512;2023-08-21T03:26:43;102429.53;;;16.54;78.89
82033;BME280;71595;52.180;4.512;2023-08-21T03:29:09;102427.88;;;16.53;78.59
82033;BME280;71595;52.180;4.512;2023-08-21T03:31:34;102428.31;;;16.43;78.96
82033;BME280;71595;52.180;4.512;2023-08-21T03:33:59;102431.22;;;16.46;78.84
82033;BME280;71595;52.180;4.512;2023-08-21T03:36:25;102432.59;;;16.40;79.40
82033;BME280;71595;52.180;4.512;2023-08-21T03:38:57;102432.81;;;16.35;79.42
82033;BME280;71595;52.180;4.512;2023-08-21T03:41:23;102425.03;;;16.41;79.07
82033;BME280;71595;52.180;4.512;2023-08-21T03:43:48;102426.28;;;16.31;79.34
82033;BME280;71595;52.180;4.512;2023-08-21T03:46:13;102421.94;;;16.21;79.76
82033;BME280;71595;52.180;4.512;2023-08-21T03:48:39;102423.38;;;16.27;79.75
82033;BME280;71595;52.180;4.512;2023-08-21T03:51:04;102431.25;;;16.25;79.73
82033;BME280;71595;52.180;4.512;2023-08-21T03:53:29;102428.47;;;16.25;79.51
82033;BME280;71595;52.180;4.512;2023-08-21T03:55:55;102426.94;;;16.28;79.47
82033;BME280;71595;52.180;4.512;2023-08-21T03:58:21;102426.28;;;16.31;79.91
82033;BME280;71595;52.180;4.512;2023-08-21T04:00:46;102431.28;;;16.38;79.63
82033;BME280;71595;52.180;4.512;2023-08-21T04:03:12;102425.38;;;16.39;80.25
82033;BME280;71595;52.180;4.512;2023-08-21T04:05:37;102427.78;;;16.28;79.82
82033;BME280;71595;52.180;4.512;2023-08-21T04:08:02;102423.81;;;16.29;79.46
82033;BME280;71595;52.180;4.512;2023-08-21T04:10:28;102431.25;;;16.25;79.89
82033;BME280;71595;52.180;4.512;2023-08-21T04:12:53;102433.22;;;16.25;79.65
82033;BME280;71595;52.180;4.512;2023-08-21T04:15:19;102427.84;;;16.20;79.69
82033;BME280;71595;52.180;4.512;2023-08-21T04:17:44;102433.88;;;16.22;79.67
82033;BME280;71595;52.180;4.512;2023-08-21T04:20:10;102440.31;;;16.22;79.51
82033;BME280;71595;52.180;4.512;2023-08-21T04:22:35;102431.19;;;16.13;79.63
82033;BME280;71595;52.180;4.512;2023-08-21T04:25:01;102439.56;;;16.13;79.73
82033;BME280;71595;52.180;4.512;2023-08-21T04:27:26;102431.03;;;16.09;79.94
82033;BME280;71595;52.180;4.512;2023-08-21T04:29:53;102431.72;;;16.06;80.03
82033;BME280;71595;52.180;4.512;2023-08-21T04:32:18;102436.75;;;16.13;79.59
82033;BME280;71595;52.180;4.512;2023-08-21T04:34:44;102436.09;;;16.16;79.81
82033;BME280;71595;52.180;4.512;2023-08-21T04:37:09;102438.19;;;16.19;79.49
82033;BME280;71595;52.180;4.512;2023-08-21T04:39:34;102439.81;;;16.20;79.38
82033;BME280;71595;52.180;4.512;2023-08-21T04:42:01;102434.91;;;16.17;79.43
82033;BME280;71595;52.180;4.512;2023-08-21T04:44:27;102434.91;;;16.17;79.51
82033;BME280;71595;52.180;4.512;2023-08-21T04:46:52;102438.38;;;16.14;79.58
82033;BME280;71595;52.180;4.512;2023-08-21T04:49:18;102435.00;;;16.08;79.61
82033;BME280;71595;52.180;4.512;2023-08-21T04:51:43;102433.34;;;16.07;79.59
82033;BME280;71595;52.180;4.512;2023-08-21T04:54:08;102444.38;;;16.04;80.30
82033;BME280;71595;52.180;4.512;2023-08-21T04:56:34;102440.56;;;16.08;80.21
82033;BME280;71595;52.180;4.512;2023-08-21T04:58:59;102445.63;;;16.06;80.33
82033;BME280;71595;52.180;4.512;2023-08-21T05:01:24;102445.16;;;16.04;80.42
82033;BME280;71595;52.180;4.512;2023-08-21T05:03:51;102439.94;;;16.03;80.56
82033;BME280;71595;52.180;4.512;2023-08-21T05:06:16;102437.28;;;16.06;80.65
82033;BME280;71595;52.180;4.512;2023-08-21T05:08:41;102444.50;;;16.07;80.66
82033;BME280;71595;52.180;4.512;2023-08-21T05:11:07;102445.25;;;16.16;80.22
82033;BME280;71595;52.180;4.512;2023-08-21T05:13:33;102443.28;;;16.17;80.32
82033;BME280;71595;52.180;4.512;2023-08-21T05:15:58;102446.81;;;16.26;80.05
82033;BME280;71595;52.180;4.512;2023-08-21T05:18:24;102451.69;;;16.29;80.21
82033;BME280;71595;52.180;4.512;2023-08-21T05:20:51;102444.50;;;16.28;80.65
82033;BME280;71595;52.180;4.512;2023-08-21T05:23:16;102447.09;;;16.33;80.28
82033;BME280;71595;52.180;4.512;2023-08-21T05:25:43;102447.09;;;16.33;80.49
82033;BME280;71595;52.180;4.512;2023-08-21T05:28:08;102452.66;;;16.33;80.85
82033;BME280;71595;52.180;4.512;2023-08-21T05:30:35;102450.00;;;16.37;80.88
82033;BME280;71595;52.180;4.512;2023-08-21T05:33:01;102453.75;;;16.41;80.97
82033;BME280;71595;52.180;4.512;2023-08-21T05:35:27;102462.72;;;16.47;80.86
82033;BME280;71595;52.180;4.512;2023-08-21T05:37:52;102456.44;;;16.50;81.05
82033;BME280;71595;52.180;4.512;2023-08-21T05:40:17;102456.72;;;16.57;81.16
82033;BME280;71595;52.180;4.512;2023-08-21T05:42:43;102464.19;;;16.65;81.33
82033;BME280;71595;52.180;4.512;2023-08-21T05:45:08;102458.59;;;16.65;81.54
82033;BME280;71595;52.180;4.512;2023-08-21T05:47:33;102467.25;;;16.73;81.42
82033;BME280;71595;52.180;4.512;2023-08-21T05:49:59;102463.91;;;16.79;81.75
82033;BME280;71595;52.180;4.512;2023-08-21T05:52:24;102464.19;;;16.86;81.56
82033;BME280;71595;52.180;4.512;2023-08-21T05:54:50;102469.56;;;16.92;81.44
82033;BME280;71595;52.180;4.512;2023-08-21T05:57:15;102463.41;;;16.98;81.27
82033;BME280;71595;52.180;4.512;2023-08-21T05:59:45;102465.31;;;17.06;81.39
82033;BME280;71595;52.180;4.512;2023-08-21T06:02:11;102465.88;;;17.12;81.29
82033;BME280;71595;52.180;4.512;2023-08-21T06:04:41;102465.44;;;17.22;81.32
82033;BME280;71595;52.180;4.512;2023-08-21T06:07:07;102464.41;;;17.27;81.10
82033;BME280;71595;52.180;4.512;2023-08-21T06:09:32;102464.19;;;17.32;80.97
82033;BME280;71595;52.180;4.512;2023-08-21T06:12:00;102471.63;;;17.40;81.36
82033;BME280;71595;52.180;4.512;2023-08-21T06:14:26;102467.44;;;17.47;81.07
82033;BME280;71595;52.180;4.512;2023-08-21T06:17:03;102474.44;;;17.53;81.03
82033;BME280;71595;52.180;4.512;2023-08-21T06:19:28;102469.91;;;17.60;80.54
82033;BME280;71595;52.180;4.512;2023-08-21T06:21:57;102475.72;;;17.68;80.63
82033;BME280;71595;52.180;4.512;2023-08-21T06:24:23;102471.53;;;17.74;80.22
82033;BME280;71595;52.180;4.512;2023-08-21T06:26:56;102471.78;;;17.81;80.82
82033;BME280;71595;52.180;4.512;2023-08-21T06:29:22;102475.97;;;17.87;80.17
82033;BME280;71595;52.180;4.512;2023-08-21T06:31:47;102475.41;;;17.94;80.65
82033;BME280;71595;52.180;4.512;2023-08-21T06:34:12;102483.19;;;18.01;80.71
82033;BME280;71595;52.180;4.512;2023-08-21T06:36:38;102480.97;;;18.06;80.31
82033;BME280;71595;52.180;4.512;2023-08-21T06:39:05;102485.16;;;18.12;80.25
82033;BME280;71595;52.180;4.512;2023-08-21T06:41:30;102486.19;;;18.20;80.33
82033;BME280;71595;52.180;4.512;2023-08-21T06:43:56;102487.22;;;18.28;80.71
82033;BME280;71595;52.180;4.512;2023-08-21T06:46:22;102474.63;;;18.34;80.83
82033;BME280;71595;52.180;4.512;2023-08-21T06:48:47;102481.47;;;18.37;80.12
82033;BME280;71595;52.180;4.512;2023-08-21T06:51:12;102482.16;;;18.46;80.66
82033;BME280;71595;52.180;4.512;2023-08-21T06:53:38;102489.59;;;18.54;81.27
82033;BME280;71595;52.180;4.512;2023-08-21T06:56:03;102483.41;;;18.61;80.96
82033;BME280;71595;52.180;4.512;2023-08-21T06:58:29;102490.38;;;18.67;80.90
82033;BME280;71595;52.180;4.512;2023-08-21T07:00:54;102492.47;;;18.70;80.87
82033;BME280;71595;52.180;4.512;2023-08-21T07:03:21;102492.66;;;18.77;80.77
82033;BME280;71595;52.180;4.512;2023-08-21T07:05:46;102487.28;;;18.84;80.78
82033;BME280;71595;52.180;4.512;2023-08-21T07:08:18;102485.41;;;18.89;81.00
82033;BME280;71595;52.180;4.512;2023-08-21T07:10:44;102489.59;;;18.95;80.78
82033;BME280;71595;52.180;4.512;2023-08-21T07:13:09;102483.72;;;19.00;80.51
82033;BME280;71595;52.180;4.512;2023-08-21T07:15:34;102489.41;;;19.03;80.67
82033;BME280;71595;52.180;4.512;2023-08-21T07:18:00;102501.97;;;19.10;80.67
82033;BME280;71595;52.180;4.512;2023-08-21T07:20:25;102501.69;;;19.15;80.50
82033;BME280;71595;52.180;4.512;2023-08-21T07:22:50;102499.91;;;19.22;80.07
82033;BME280;71595;52.180;4.512;2023-08-21T07:25:16;102501.28;;;19.29;80.66
82033;BME280;71595;52.180;4.512;2023-08-21T07:27:41;102499.84;;;19.35;80.30
82033;BME280;71595;52.180;4.512;2023-08-21T07:30:07;102501.38;;;19.32;79.88
82033;BME280;71595;52.180;4.512;2023-08-21T07:32:32;102511.50;;;19.37;79.74
82033;BME280;71595;52.180;4.512;2023-08-21T07:34:58;102506.34;;;19.39;79.63
82033;BME280;71595;52.180;4.512;2023-08-21T07:37:23;102503.63;;;19.43;79.94
82033;BME280;71595;52.180;4.512;2023-08-21T07:39:49;102507.00;;;19.48;80.11
82033;BME280;71595;52.180;4.512;2023-08-21T07:42:14;102506.72;;;19.53;80.03
82033;BME280;71595;52.180;4.512;2023-08-21T07:44:39;102504.47;;;19.59;79.77
82033;BME280;71595;52.180;4.512;2023-08-21T07:47:05;102506.19;;;19.64;79.41
82033;BME280;71595;52.180;4.512;2023-08-21T07:49:32;102512.22;;;19.66;79.32
82033;BME280;71595;52.180;4.512;2023-08-21T07:51:57;102522.72;;;19.69;79.27
82033;BME280;71595;52.180;4.512;2023-08-21T07:54:23;102516.81;;;19.74;79.27
82033;BME280;71595;52.180;4.512;2023-08-21T07:56:49;102516.13;;;19.77;79.08
82033;BME280;71595;52.180;4.512;2023-08-21T07:59:15;102513.78;;;19.79;78.54
82033;BME280;71595;52.180;4.512;2023-08-21T08:01:40;102517.47;;;19.83;78.15
82033;BME280;71595;52.180;4.512;2023-08-21T08:04:06;102521.63;;;19.89;78.45
82033;BME280;71595;52.180;4.512;2023-08-21T08:06:31;102519.31;;;19.91;78.01
82033;BME280;71595;52.180;4.512;2023-08-21T08:08:57;102520.66;;;19.98;77.95
82033;BME280;71595;52.180;4.512;2023-08-21T08:11:23;102525.53;;;20.01;77.92
82033;BME280;71595;52.180;4.512;2023-08-21T08:13:48;102525.13;;;20.02;77.37
82033;BME280;71595;52.180;4.512;2023-08-21T08:16:13;102517.47;;;19.99;76.96
82033;BME280;71595;52.180;4.512;2023-08-21T08:18:39;102513.13;;;20.02;76.96
82033;BME280;71595;52.180;4.512;2023-08-21T08:21:04;102522.44;;;20.06;76.62
82033;BME280;71595;52.180;4.512;2023-08-21T08:23:30;102524.16;;;20.10;76.14
82033;BME280;71595;52.180;4.512;2023-08-21T08:25:55;102528.66;;;20.15;76.24
82033;BME280;71595;52.180;4.512;2023-08-21T08:28:20;102530.00;;;20.21;75.90
82033;BME280;71595;52.180;4.512;2023-08-21T08:30:46;102521.31;;;20.26;75.62
82033;BME280;71595;52.180;4.512;2023-08-21T08:33:11;102516.59;;;20.31;75.27
82033;BME280;71595;52.180;4.512;2023-08-21T08:35:37;102510.25;;;20.34;74.45
82033;BME280;71595;52.180;4.512;2023-08-21T08:38:02;102511.13;;;20.38;73.81
82033;BME280;71595;52.180;4.512;2023-08-21T08:40:28;102505.97;;;20.40;73.24
82033;BME280;71595;52.180;4.512;2023-08-21T08:42:53;102500.81;;;20.42;73.20
82033;BME280;71595;52.180;4.512;2023-08-21T08:45:28;102502.50;;;20.46;73.35
82033;BME280;71595;52.180;4.512;2023-08-21T08:47:57;102509.81;;;20.51;73.28
82033;BME280;71595;52.180;4.512;2023-08-21T08:50:23;102496.53;;;20.48;73.24
82033;BME280;71595;52.180;4.512;2023-08-21T08:52:49;102512.31;;;20.56;72.41
82033;BME280;71595;52.180;4.512;2023-08-21T08:55:14;102512.75;;;20.58;71.94
82033;BME280;71595;52.180;4.512;2023-08-21T08:57:39;102512.47;;;20.63;71.96
82033;BME280;71595;52.180;4.512;2023-08-21T09:00:05;102510.13;;;20.65;71.67
82033;BME280;71595;52.180;4.512;2023-08-21T09:02:31;102515.00;;;20.69;70.75
82033;BME280;71595;52.180;4.512;2023-08-21T09:04:57;102520.63;;;20.69;70.85
82033;BME280;71595;52.180;4.512;2023-08-21T09:07:25;102519.88;;;20.72;70.70
82033;BME280;71595;52.180;4.512;2023-08-21T09:09:50;102532.88;;;20.80;71.14
82033;BME280;71595;52.180;4.512;2023-08-21T09:12:18;102510.16;;;20.85;70.61
82033;BME280;71595;52.180;4.512;2023-08-21T09:14:44;102518.47;;;20.81;69.80
82033;BME280;71595;52.180;4.512;2023-08-21T09:17:10;102516.56;;;20.86;69.69
82033;BME280;71595;52.180;4.512;2023-08-21T09:19:35;102518.31;;;20.94;69.56
82033;BME280;71595;52.180;4.512;2023-08-21T09:22:18;102513.22;;;20.99;69.34
82033;BME280;71595;52.180;4.512;2023-08-21T09:25:03;102522.91;;;21.02;69.59
82033;BME280;71595;52.180;4.512;2023-08-21T09:27:36;102508.41;;;21.00;68.36
82033;BME280;71595;52.180;4.512;2023-08-21T09:30:09;102513.22;;;20.99;68.20
82033;BME280;71595;52.180;4.512;2023-08-21T09:32:52;102516.09;;;21.03;68.33
82033;BME280;71595;52.180;4.512;2023-08-21T09:35:18;102514.97;;;21.08;68.39
82033;BME280;71595;52.180;4.512;2023-08-21T09:37:46;102504.19;;;21.10;67.82
82033;BME280;71595;52.180;4.512;2023-08-21T09:40:12;102516.72;;;21.16;67.42
82033;BME280;71595;52.180;4.512;2023-08-21T09:42:39;102505.50;;;21.16;66.86
82033;BME280;71595;52.180;4.512;2023-08-21T09:45:05;102507.66;;;21.23;66.96
82033;BME280;71595;52.180;4.512;2023-08-21T09:47:31;102508.03;;;21.21;66.61
82033;BME280;71595;52.180;4.512;2023-08-21T09:49:57;102500.44;;;21.25;66.83
82033;BME280;71595;52.180;4.512;2023-08-21T09:52:24;102498.94;;;21.31;66.39
82033;BME280;71595;52.180;4.512;2023-08-21T09:54:51;102499.84;;;21.35;66.54
82033;BME280;71595;52.180;4.512;2023-08-21T09:57:21;102512.72;;;21.36;65.23
82033;BME280;71595;52.180;4.512;2023-08-21T09:59:47;102512.25;;;21.34;64.91
82033;BME280;71595;52.180;4.512;2023-08-21T10:02:14;102513.09;;;21.35;64.62
82033;BME280;71595;52.180;4.512;2023-08-21T10:04:45;102513.19;;;21.42;64.67
82033;BME280;71595;52.180;4.512;2023-08-21T10:07:10;102505.72;;;21.50;64.58
82033;BME280;71595;52.180;4.512;2023-08-21T10:09:39;102508.63;;;21.53;64.06
82033;BME280;71595;52.180;4.512;2023-08-21T10:12:06;102516.69;;;21.55;63.78
82033;BME280;71595;52.180;4.512;2023-08-21T10:14:33;102509.47;;;21.58;63.62
82033;BME280;71595;52.180;4.512;2023-08-21T10:16:59;102511.91;;;21.59;63.43
82033;BME280;71595;52.180;4.512;2023-08-21T10:19:31;102516.78;;;21.62;63.55
82033;BME280;71595;52.180;4.512;2023-08-21T10:21:56;102516.41;;;21.64;63.19
82033;BME280;71595;52.180;4.512;2023-08-21T10:24:27;102506.41;;;21.66;62.11
82033;BME280;71595;52.180;4.512;2023-08-21T10:26:54;102518.50;;;21.70;62.43
82033;BME280;71595;52.180;4.512;2023-08-21T10:29:22;102512.91;;;21.70;62.35
82033;BME280;71595;52.180;4.512;2023-08-21T10:32:00;102504.47;;;21.70;62.34
82033;BME280;71595;52.180;4.512;2023-08-21T10:34:34;102506.59;;;21.77;61.48
82033;BME280;71595;52.180;4.512;2023-08-21T10:39:26;102505.00;;;21.80;61.32
82033;BME280;71595;52.180;4.512;2023-08-21T10:41:56;102504.22;;;21.79;61.11
82033;BME280;71595;52.180;4.512;2023-08-21T10:47:23;102509.06;;;21.82;60.13
82033;BME280;71595;52.180;4.512;2023-08-21T10:50:03;102505.13;;;21.87;60.70
82033;BME280;71595;52.180;4.512;2023-08-21T10:52:31;102502.00;;;21.92;60.33
82033;BME280;71595;52.180;4.512;2023-08-21T10:55:00;102493.25;;;21.97;59.06
82033;BME280;71595;52.180;4.512;2023-08-21T10:57:28;102493.66;;;21.99;58.04
82033;BME280;71595;52.180;4.512;2023-08-21T11:00:05;102498.88;;;21.97;58.01
82033;BME280;71595;52.180;4.512;2023-08-21T11:02:35;102507.31;;;21.97;58.09
82033;BME280;71595;52.180;4.512;2023-08-21T11:05:01;102502.53;;;22.01;57.18
82033;BME280;71595;52.180;4.512;2023-08-21T11:07:28;102502.22;;;22.06;58.45
82033;BME280;71595;52.180;4.512;2023-08-21T11:09:54;102508.34;;;22.16;58.53
82033;BME280;71595;52.180;4.512;2023-08-21T11:13:00;102508.81;;;22.18;58.76
82033;BME280;71595;52.180;4.512;2023-08-21T11:15:27;102506.38;;;22.16;58.26
82033;BME280;71595;52.180;4.512;2023-08-21T11:17:57;102500.75;;;22.16;57.74
82033;BME280;71595;52.180;4.512;2023-08-21T11:20:30;102504.84;;;22.22;58.50
82033;BME280;71595;52.180;4.512;2023-08-21T11:23:00;102497.63;;;22.25;58.74
82033;BME280;71595;52.180;4.512;2023-08-21T11:25:28;102501.28;;;22.25;58.61
82033;BME280;71595;52.180;4.512;2023-08-21T11:27:55;102497.09;;;22.16;58.30
82033;BME280;71595;52.180;4.512;2023-08-21T11:30:22;102494.28;;;22.16;58.38
82033;BME280;71595;52.180;4.512;2023-08-21T11:32:49;102501.47;;;22.10;58.35
82033;BME280;71595;52.180;4.512;2023-08-21T11:35:15;102505.53;;;22.16;58.76
82033;BME280;71595;52.180;4.512;2023-08-21T11:37:44;102506.41;;;22.20;58.95
82033;BME280;71595;52.180;4.512;2023-08-21T11:40:13;102511.25;;;22.19;58.61
82033;BME280;71595;52.180;4.512;2023-08-21T11:42:39;102504.03;;;22.22;59.04
82033;BME280;71595;52.180;4.512;2023-08-21T11:45:05;102504.84;;;22.22;58.51
82033;BME280;71595;52.180;4.512;2023-08-21T11:47:32;102512.16;;;22.27;58.09
82033;BME280;71595;52.180;4.512;2023-08-21T11:53:02;102503.50;;;22.39;58.39
82033;BME280;71595;52.180;4.512;2023-08-21T11:55:29;102506.84;;;22.49;58.52
82033;BME280;71595;52.180;4.512;2023-08-21T11:57:54;102508.56;;;22.57;58.17
82033;BME280;71595;52.180;4.512;2023-08-21T12:00:27;102506.59;;;22.61;58.17
82033;BME280;71595;52.180;4.512;2023-08-21T12:02:57;102491.75;;;22.64;57.23
82033;BME280;71595;52.180;4.512;2023-08-21T12:05:42;102488.09;;;22.60;57.56
82033;BME280;71595;52.180;4.512;2023-08-21T12:08:08;102495.28;;;22.57;56.28
82033;BME280;71595;52.180;4.512;2023-08-21T12:10:33;102500.47;;;22.52;56.03
82033;BME280;71595;52.180;4.512;2023-08-21T12:12:58;102488.22;;;22.40;55.93
82033;BME280;71595;52.180;4.512;2023-08-21T12:15:24;102502.81;;;22.50;55.87
82033;BME280;71595;52.180;4.512;2023-08-21T12:17:49;102495.63;;;22.52;55.91
82033;BME280;71595;52.180;4.512;2023-08-21T12:20:14;102502.53;;;22.58;56.40
82033;BME280;71595;52.180;4.512;2023-08-21T12:22:40;102498.16;;;22.61;56.14
82033;BME280;71595;52.180;4.512;2023-08-21T12:25:07;102501.28;;;22.56;55.97
82033;BME280;71595;52.180;4.512;2023-08-21T12:27:34;102506.91;;;22.56;56.02
82033;BME280;71595;52.180;4.512;2023-08-21T12:29:59;102493.16;;;22.47;56.12
82033;BME280;71595;52.180;4.512;2023-08-21T12:32:24;102495.63;;;22.52;56.24
82033;BME280;71595;52.180;4.512;2023-08-21T12:34:50;102496.25;;;22.38;56.44
82033;BME280;71595;52.180;4.512;2023-08-21T12:37:15;102496.34;;;22.46;56.06
82033;BME280;71595;52.180;4.512;2023-08-21T12:39:40;102499.56;;;22.44;56.13
82033;BME280;71595;52.180;4.512;2023-08-21T12:42:06;102504.84;;;22.49;56.05
82033;BME280;71595;52.180;4.512;2023-08-21T12:44:33;102505.22;;;22.48;55.27
82033;BME280;71595;52.180;4.512;2023-08-21T12:46:59;102492.84;;;22.56;55.67
82033;BME280;71595;52.180;4.512;2023-08-21T12:49:24;102492.44;;;22.54;55.86
82033;BME280;71595;52.180;4.512;2023-08-21T12:51:49;102500.53;;;22.59;56.33
82033;BME280;71595;52.180;4.512;2023-08-21T12:54:15;102505.31;;;22.55;55.81
82033;BME280;71595;52.180;4.512;2023-08-21T12:56:40;102498.84;;;22.54;55.57